sensor_id;sensor_type;location;lat;lon;timestamp;P1;durP1;ratioP1;P2;durP2;ratioP2
317;SDS011;146;53.448;10.228;2023-01-10T00:02:04;12.77;;;9.27;;
317;SDS011;146;53.448;10.228;2023-01-10T00:04:30;16.93;;;10.07;;
317;SDS011;146;53.448;10.228;2023-01-10T00:06:57;17.00;;;8.90;;
317;SDS011;146;53.448;10.228;2023-01-10T00:09:24;18.63;;;9.90;;
317;SDS011;146;53.448;10.228;2023-01-10T00:11:52;13.50;;;8.53;;
317;SDS011;146;53.448;10.228;2023-01-10T00:14:37;11.20;;;7.50;;
317;SDS011;146;53.448;10.228;2023-01-10T00:17:04;11.43;;;8.40;;
317;SDS011;146;53.448;10.228;2023-01-10T00:19:30;9.60;;;7.83;;
317;SDS011;146;53.448;10.228;2023-01-10T00:21:57;11.27;;;7.30;;
317;SDS011;146;53.448;10.228;2023-01-10T00:24:37;12.10;;;8.70;;
317;SDS011;146;53.448;10.228;2023-01-10T00:27:07;8.73;;;7.23;;
317;SDS011;146;53.448;10.228;2023-01-10T00:29:38;12.70;;;8.80;;
317;SDS011;146;53.448;10.228;2023-01-10T00:32:05;12.60;;;8.67;;
317;SDS011;146;53.448;10.228;2023-01-10T00:34:32;11.13;;;7.00;;
317;SDS011;146;53.448;10.228;2023-01-10T00:44:34;8.80;;;6.20;;
317;SDS011;146;53.448;10.228;2023-01-10T00:47:01;11.63;;;7.10;;
317;SDS011;146;53.448;10.228;2023-01-10T00:49:27;13.60;;;6.90;;
317;SDS011;146;53.448;10.228;2023-01-10T00:51:54;8.20;;;5.67;;
317;SDS011;146;53.448;10.228;2023-01-10T00:54:23;13.47;;;8.07;;
317;SDS011;146;53.448;10.228;2023-01-10T00:56:53;12.03;;;6.87;;
317;SDS011;146;53.448;10.228;2023-01-10T00:59:20;8.23;;;6.13;;
317;SDS011;146;53.448;10.228;2023-01-10T01:01:50;13.60;;;5.77;;
317;SDS011;146;53.448;10.228;2023-01-10T01:04:17;21.43;;;6.40;;
317;SDS011;146;53.448;10.228;2023-01-10T01:06:44;10.30;;;6.33;;
317;SDS011;146;53.448;10.228;2023-01-10T01:09:13;11.70;;;6.17;;
317;SDS011;146;53.448;10.228;2023-01-10T01:11:41;8.60;;;6.23;;
317;SDS011;146;53.448;10.228;2023-01-10T01:14:08;13.67;;;6.63;;
317;SDS011;146;53.448;10.228;2023-01-10T01:16:35;8.20;;;7.13;;
317;SDS011;146;53.448;10.228;2023-01-10T01:19:03;11.77;;;6.10;;
317;SDS011;146;53.448;10.228;2023-01-10T01:21:31;10.67;;;6.20;;
317;SDS011;146;53.448;10.228;2023-01-10T01:23:58;8.60;;;5.70;;
317;SDS011;146;53.448;10.228;2023-01-10T01:26:24;8.80;;;6.23;;
317;SDS011;146;53.448;10.228;2023-01-10T01:28:52;7.90;;;6.17;;
317;SDS011;146;53.448;10.228;2023-01-10T01:31:19;10.27;;;6.90;;
317;SDS011;146;53.448;10.228;2023-01-10T01:33:45;9.50;;;6.30;;
317;SDS011;146;53.448;10.228;2023-01-10T01:36:14;9.60;;;6.27;;
317;SDS011;146;53.448;10.228;2023-01-10T01:38:41;12.73;;;5.30;;
317;SDS011;146;53.448;10.228;2023-01-10T01:41:14;9.53;;;5.83;;
317;SDS011;146;53.448;10.228;2023-01-10T01:44:03;10.10;;;6.20;;
317;SDS011;146;53.448;10.228;2023-01-10T01:46:30;12.03;;;6.97;;
317;SDS011;146;53.448;10.228;2023-01-10T01:49:02;8.40;;;6.20;;
317;SDS011;146;53.448;10.228;2023-01-10T01:51:32;8.30;;;5.83;;
317;SDS011;146;53.448;10.228;2023-01-10T01:54:00;8.40;;;5.60;;
317;SDS011;146;53.448;10.228;2023-01-10T01:56:32;8.60;;;6.30;;
317;SDS011;146;53.448;10.228;2023-01-10T01:59:04;9.87;;;7.33;;
317;SDS011;146;53.448;10.228;2023-01-10T02:01:34;16.13;;;6.60;;
317;SDS011;146;53.448;10.228;2023-01-10T02:04:06;9.53;;;5.47;;
317;SDS011;146;53.448;10.228;2023-01-10T02:06:39;7.60;;;5.70;;
317;SDS011;146;53.448;10.228;2023-01-10T02:09:11;8.40;;;7.50;;
317;SDS011;146;53.448;10.228;2023-01-10T02:11:42;9.20;;;6.67;;
317;SDS011;146;53.448;10.228;2023-01-10T02:14:10;8.17;;;5.70;;
317;SDS011;146;53.448;10.228;2023-01-10T02:16:46;10.90;;;5.43;;
317;SDS011;146;53.448;10.228;2023-01-10T02:19:22;10.33;;;5.70;;
317;SDS011;146;53.448;10.228;2023-01-10T02:22:11;12.60;;;7.77;;
317;SDS011;146;53.448;10.228;2023-01-10T02:25:16;7.63;;;5.70;;
317;SDS011;146;53.448;10.228;2023-01-10T02:31:19;11.97;;;5.47;;
317;SDS011;146;53.448;10.228;2023-01-10T02:34:05;7.83;;;5.90;;
317;SDS011;146;53.448;10.228;2023-01-10T02:36:41;12.47;;;6.27;;
317;SDS011;146;53.448;10.228;2023-01-10T02:39:17;11.33;;;6.03;;
317;SDS011;146;53.448;10.228;2023-01-10T02:42:00;14.17;;;5.63;;
317;SDS011;146;53.448;10.228;2023-01-10T03:09:02;9.40;;;7.97;;
317;SDS011;146;53.448;10.228;2023-01-10T03:11:34;12.40;;;8.03;;
317;SDS011;146;53.448;10.228;2023-01-10T03:14:10;8.63;;;7.73;;
317;SDS011;146;53.448;10.228;2023-01-10T03:16:41;11.60;;;8.17;;
317;SDS011;146;53.448;10.228;2023-01-10T03:19:12;14.80;;;8.07;;
317;SDS011;146;53.448;10.228;2023-01-10T03:21:45;9.80;;;6.77;;
317;SDS011;146;53.448;10.228;2023-01-10T03:24:18;7.60;;;6.80;;
317;SDS011;146;53.448;10.228;2023-01-10T03:26:51;12.67;;;7.13;;
317;SDS011;146;53.448;10.228;2023-01-10T03:29:23;11.20;;;7.80;;
317;SDS011;146;53.448;10.228;2023-01-10T03:31:54;10.90;;;8.00;;
317;SDS011;146;53.448;10.228;2023-01-10T03:34:25;10.23;;;6.93;;
317;SDS011;146;53.448;10.228;2023-01-10T03:36:55;16.37;;;7.33;;
317;SDS011;146;53.448;10.228;2023-01-10T03:39:29;9.03;;;7.03;;
317;SDS011;146;53.448;10.228;2023-01-10T03:42:06;8.00;;;7.20;;
317;SDS011;146;53.448;10.228;2023-01-10T03:44:39;9.80;;;6.47;;
317;SDS011;146;53.448;10.228;2023-01-10T03:47:09;9.13;;;5.87;;
317;SDS011;146;53.448;10.228;2023-01-10T03:49:40;9.60;;;6.53;;
317;SDS011;146;53.448;10.228;2023-01-10T03:52:13;8.80;;;5.47;;
317;SDS011;146;53.448;10.228;2023-01-10T03:54:42;5.53;;;4.80;;
317;SDS011;146;53.448;10.228;2023-01-10T03:57:13;9.00;;;6.13;;
317;SDS011;146;53.448;10.228;2023-01-10T03:59:41;5.33;;;4.83;;
317;SDS011;146;53.448;10.228;2023-01-10T04:02:08;16.17;;;6.00;;
317;SDS011;146;53.448;10.228;2023-01-10T04:04:35;6.73;;;4.60;;
317;SDS011;146;53.448;10.228;2023-01-10T04:07:02;8.10;;;4.40;;
317;SDS011;146;53.448;10.228;2023-01-10T04:09:30;7.40;;;4.60;;
317;SDS011;146;53.448;10.228;2023-01-10T04:11:57;6.13;;;4.40;;
317;SDS011;146;53.448;10.228;2023-01-10T04:14:24;7.40;;;4.40;;
317;SDS011;146;53.448;10.228;2023-01-10T04:16:51;7.03;;;4.33;;
317;SDS011;146;53.448;10.228;2023-01-10T04:19:18;8.47;;;5.33;;
317;SDS011;146;53.448;10.228;2023-01-10T04:21:45;9.37;;;5.30;;
317;SDS011;146;53.448;10.228;2023-01-10T04:24:12;14.73;;;5.17;;
317;SDS011;146;53.448;10.228;2023-01-10T04:26:40;5.47;;;3.90;;
317;SDS011;146;53.448;10.228;2023-01-10T04:29:07;5.63;;;3.53;;
317;SDS011;146;53.448;10.228;2023-01-10T04:31:33;8.27;;;4.87;;
317;SDS011;146;53.448;10.228;2023-01-10T04:34:00;6.43;;;4.80;;
317;SDS011;146;53.448;10.228;2023-01-10T04:36:27;6.60;;;4.60;;
317;SDS011;146;53.448;10.228;2023-01-10T04:38:54;8.10;;;5.00;;
317;SDS011;146;53.448;10.228;2023-01-10T04:41:21;7.50;;;3.80;;
317;SDS011;146;53.448;10.228;2023-01-10T04:43:49;8.80;;;4.73;;
317;SDS011;146;53.448;10.228;2023-01-10T04:46:16;6.70;;;4.43;;
317;SDS011;146;53.448;10.228;2023-01-10T04:48:43;6.30;;;3.73;;
317;SDS011;146;53.448;10.228;2023-01-10T04:51:10;7.00;;;5.73;;
317;SDS011;146;53.448;10.228;2023-01-10T04:53:37;7.00;;;5.30;;
317;SDS011;146;53.448;10.228;2023-01-10T04:56:04;12.33;;;4.70;;
317;SDS011;146;53.448;10.228;2023-01-10T04:58:32;9.03;;;4.87;;
317;SDS011;146;53.448;10.228;2023-01-10T05:01:06;6.03;;;4.23;;
317;SDS011;146;53.448;10.228;2023-01-10T05:03:34;6.90;;;4.37;;
317;SDS011;146;53.448;10.228;2023-01-10T05:06:01;9.30;;;4.10;;
317;SDS011;146;53.448;10.228;2023-01-10T05:08:28;9.53;;;5.50;;
317;SDS011;146;53.448;10.228;2023-01-10T05:10:55;4.77;;;4.23;;
317;SDS011;146;53.448;10.228;2023-01-10T05:13:21;5.80;;;4.40;;
317;SDS011;146;53.448;10.228;2023-01-10T05:15:49;6.93;;;3.57;;
317;SDS011;146;53.448;10.228;2023-01-10T05:18:20;6.53;;;3.90;;
317;SDS011;146;53.448;10.228;2023-01-10T05:20:47;9.47;;;4.33;;
317;SDS011;146;53.448;10.228;2023-01-10T05:23:14;8.90;;;4.17;;
317;SDS011;146;53.448;10.228;2023-01-10T05:25:40;7.50;;;3.90;;
317;SDS011;146;53.448;10.228;2023-01-10T05:28:07;7.83;;;4.23;;
317;SDS011;146;53.448;10.228;2023-01-10T05:30:35;3.80;;;3.40;;
317;SDS011;146;53.448;10.228;2023-01-10T05:33:03;4.50;;;3.73;;
317;SDS011;146;53.448;10.228;2023-01-10T05:35:31;7.73;;;3.50;;
317;SDS011;146;53.448;10.228;2023-01-10T05:37:58;6.87;;;3.60;;
317;SDS011;146;53.448;10.228;2023-01-10T05:40:25;7.50;;;3.90;;
317;SDS011;146;53.448;10.228;2023-01-10T05:42:52;7.70;;;3.70;;
317;SDS011;146;53.448;10.228;2023-01-10T05:45:19;6.27;;;3.33;;
317;SDS011;146;53.448;10.228;2023-01-10T05:47:46;6.13;;;3.80;;
317;SDS011;146;53.448;10.228;2023-01-10T05:50:12;6.93;;;4.20;;
317;SDS011;146;53.448;10.228;2023-01-10T05:52:41;7.03;;;3.90;;
317;SDS011;146;53.448;10.228;2023-01-10T05:55:08;8.37;;;3.80;;
317;SDS011;146;53.448;10.228;2023-01-10T05:57:34;10.57;;;4.33;;
317;SDS011;146;53.448;10.228;2023-01-10T06:00:02;5.90;;;4.20;;
317;SDS011;146;53.448;10.228;2023-01-10T06:02:30;10.60;;;4.47;;
317;SDS011;146;53.448;10.228;2023-01-10T06:04:57;16.90;;;4.03;;
317;SDS011;146;53.448;10.228;2023-01-10T06:07:24;4.53;;;3.70;;
317;SDS011;146;53.448;10.228;2023-01-10T06:09:52;8.97;;;4.37;;
317;SDS011;146;53.448;10.228;2023-01-10T06:12:19;7.47;;;4.60;;
317;SDS011;146;53.448;10.228;2023-01-10T06:14:46;7.13;;;3.87;;
317;SDS011;146;53.448;10.228;2023-01-10T06:17:12;12.73;;;6.13;;
317;SDS011;146;53.448;10.228;2023-01-10T06:19:39;11.10;;;6.30;;
317;SDS011;146;53.448;10.228;2023-01-10T06:22:06;10.13;;;6.83;;
317;SDS011;146;53.448;10.228;2023-01-10T06:24:33;6.53;;;4.57;;
317;SDS011;146;53.448;10.228;2023-01-10T06:27:01;13.17;;;5.47;;
317;SDS011;146;53.448;10.228;2023-01-10T06:29:28;12.73;;;5.10;;
317;SDS011;146;53.448;10.228;2023-01-10T06:31:55;18.97;;;5.80;;
317;SDS011;146;53.448;10.228;2023-01-10T06:34:22;11.57;;;5.90;;
317;SDS011;146;53.448;10.228;2023-01-10T06:36:49;13.50;;;6.13;;
317;SDS011;146;53.448;10.228;2023-01-10T06:39:15;8.30;;;5.70;;
317;SDS011;146;53.448;10.228;2023-01-10T06:41:42;12.53;;;6.00;;
317;SDS011;146;53.448;10.228;2023-01-10T06:44:10;8.17;;;6.00;;
317;SDS011;146;53.448;10.228;2023-01-10T06:46:37;6.63;;;4.70;;
317;SDS011;146;53.448;10.228;2023-01-10T06:49:04;13.07;;;5.50;;
317;SDS011;146;53.448;10.228;2023-01-10T06:51:32;12.63;;;6.20;;
317;SDS011;146;53.448;10.228;2023-01-10T06:53:58;8.13;;;5.70;;
317;SDS011;146;53.448;10.228;2023-01-10T06:56:25;9.43;;;5.73;;
317;SDS011;146;53.448;10.228;2023-01-10T06:58:52;7.43;;;4.77;;
317;SDS011;146;53.448;10.228;2023-01-10T07:01:20;7.07;;;5.23;;
317;SDS011;146;53.448;10.228;2023-01-10T07:03:47;11.17;;;5.20;;
317;SDS011;146;53.448;10.228;2023-01-10T07:06:14;9.93;;;5.20;;
317;SDS011;146;53.448;10.228;2023-01-10T07:08:42;8.90;;;4.73;;
317;SDS011;146;53.448;10.228;2023-01-10T07:11:10;13.20;;;5.40;;
317;SDS011;146;53.448;10.228;2023-01-10T07:13:39;10.77;;;4.80;;
317;SDS011;146;53.448;10.228;2023-01-10T07:16:06;6.97;;;4.37;;
317;SDS011;146;53.448;10.228;2023-01-10T07:18:37;9.07;;;4.47;;
317;SDS011;146;53.448;10.228;2023-01-10T07:21:05;6.27;;;4.53;;
317;SDS011;146;53.448;10.228;2023-01-10T07:23:32;6.23;;;4.00;;
317;SDS011;146;53.448;10.228;2023-01-10T07:26:01;9.77;;;6.00;;
317;SDS011;146;53.448;10.228;2023-01-10T07:28:29;10.50;;;5.43;;
317;SDS011;146;53.448;10.228;2023-01-10T07:30:58;12.93;;;5.20;;
317;SDS011;146;53.448;10.228;2023-01-10T07:33:25;7.90;;;5.23;;
317;SDS011;146;53.448;10.228;2023-01-10T07:35:53;7.40;;;4.90;;
317;SDS011;146;53.448;10.228;2023-01-10T07:38:20;6.83;;;5.00;;
317;SDS011;146;53.448;10.228;2023-01-10T07:40:47;5.87;;;4.43;;
317;SDS011;146;53.448;10.228;2023-01-10T07:43:14;6.40;;;3.97;;
317;SDS011;146;53.448;10.228;2023-01-10T07:45:41;10.37;;;4.40;;
317;SDS011;146;53.448;10.228;2023-01-10T07:48:07;7.07;;;4.77;;
317;SDS011;146;53.448;10.228;2023-01-10T07:50:35;8.37;;;4.63;;
317;SDS011;146;53.448;10.228;2023-01-10T07:53:04;8.03;;;4.20;;
317;SDS011;146;53.448;10.228;2023-01-10T07:55:32;11.17;;;4.43;;
317;SDS011;146;53.448;10.228;2023-01-10T07:58:03;9.77;;;5.43;;
317;SDS011;146;53.448;10.228;2023-01-10T08:00:31;12.20;;;6.17;;
317;SDS011;146;53.448;10.228;2023-01-10T08:02:59;7.90;;;5.83;;
317;SDS011;146;53.448;10.228;2023-01-10T08:05:26;9.97;;;6.20;;
317;SDS011;146;53.448;10.228;2023-01-10T08:07:52;7.37;;;4.73;;
317;SDS011;146;53.448;10.228;2023-01-10T08:10:25;8.30;;;4.30;;
317;SDS011;146;53.448;10.228;2023-01-10T08:12:59;6.63;;;4.57;;
317;SDS011;146;53.448;10.228;2023-01-10T08:15:26;8.53;;;4.67;;
317;SDS011;146;53.448;10.228;2023-01-10T08:17:53;8.07;;;4.50;;
317;SDS011;146;53.448;10.228;2023-01-10T08:20:20;12.17;;;4.53;;
317;SDS011;146;53.448;10.228;2023-01-10T08:22:47;7.43;;;4.77;;
317;SDS011;146;53.448;10.228;2023-01-10T08:25:14;12.50;;;5.13;;
317;SDS011;146;53.448;10.228;2023-01-10T08:27:42;9.13;;;5.03;;
317;SDS011;146;53.448;10.228;2023-01-10T08:30:09;7.73;;;5.60;;
317;SDS011;146;53.448;10.228;2023-01-10T08:32:36;7.87;;;4.20;;
317;SDS011;146;53.448;10.228;2023-01-10T08:35:04;8.13;;;4.37;;
317;SDS011;146;53.448;10.228;2023-01-10T08:37:31;10.40;;;5.20;;
317;SDS011;146;53.448;10.228;2023-01-10T08:39:59;13.33;;;6.17;;
317;SDS011;146;53.448;10.228;2023-01-10T08:42:26;9.33;;;3.97;;
317;SDS011;146;53.448;10.228;2023-01-10T08:44:54;11.03;;;4.17;;
317;SDS011;146;53.448;10.228;2023-01-10T08:47:21;12.37;;;5.13;;
317;SDS011;146;53.448;10.228;2023-01-10T08:49:47;8.67;;;4.67;;
317;SDS011;146;53.448;10.228;2023-01-10T08:52:14;8.63;;;4.07;;
317;SDS011;146;53.448;10.228;2023-01-10T08:54:41;14.83;;;4.33;;
317;SDS011;146;53.448;10.228;2023-01-10T08:57:08;9.83;;;4.43;;
317;SDS011;146;53.448;10.228;2023-01-10T09:13:09;8.37;;;4.27;;
317;SDS011;146;53.448;10.228;2023-01-10T09:16:00;8.80;;;3.93;;
317;SDS011;146;53.448;10.228;2023-01-10T09:30:01;7.00;;;4.50;;
317;SDS011;146;53.448;10.228;2023-01-10T09:32:34;8.47;;;5.37;;
317;SDS011;146;53.448;10.228;2023-01-10T09:35:04;7.33;;;4.77;;
317;SDS011;146;53.448;10.228;2023-01-10T09:44:16;9.37;;;4.97;;
317;SDS011;146;53.448;10.228;2023-01-10T09:51:08;11.73;;;5.23;;
317;SDS011;146;53.448;10.228;2023-01-10T09:53:56;8.00;;;5.27;;
317;SDS011;146;53.448;10.228;2023-01-10T09:56:47;11.03;;;5.50;;
317;SDS011;146;53.448;10.228;2023-01-10T09:59:52;7.07;;;5.57;;
317;SDS011;146;53.448;10.228;2023-01-10T10:10:14;5.90;;;5.13;;
317;SDS011;146;53.448;10.228;2023-01-10T10:12:46;7.87;;;4.73;;
317;SDS011;146;53.448;10.228;2023-01-10T10:15:22;14.63;;;6.67;;
317;SDS011;146;53.448;10.228;2023-01-10T10:18:09;9.23;;;5.57;;
317;SDS011;146;53.448;10.228;2023-01-10T10:20:48;8.43;;;5.00;;
317;SDS011;146;53.448;10.228;2023-01-10T10:23:34;7.33;;;5.50;;
317;SDS011;146;53.448;10.228;2023-01-10T10:26:14;9.67;;;5.60;;
317;SDS011;146;53.448;10.228;2023-01-10T10:28:51;20.23;;;6.33;;
317;SDS011;146;53.448;10.228;2023-01-10T10:31:44;8.50;;;5.70;;
317;SDS011;146;53.448;10.228;2023-01-10T10:34:48;13.47;;;6.10;;
317;SDS011;146;53.448;10.228;2023-01-10T10:37:19;9.97;;;7.00;;
317;SDS011;146;53.448;10.228;2023-01-10T10:39:51;11.03;;;5.90;;
317;SDS011;146;53.448;10.228;2023-01-10T10:42:22;9.90;;;5.50;;
317;SDS011;146;53.448;10.228;2023-01-10T10:44:56;8.13;;;5.73;;
317;SDS011;146;53.448;10.228;2023-01-10T10:47:31;11.07;;;5.77;;
317;SDS011;146;53.448;10.228;2023-01-10T10:50:00;10.10;;;5.07;;
317;SDS011;146;53.448;10.228;2023-01-10T10:52:41;14.67;;;6.53;;
317;SDS011;146;53.448;10.228;2023-01-10T10:55:11;7.40;;;5.10;;
317;SDS011;146;53.448;10.228;2023-01-10T10:57:41;8.47;;;4.83;;
317;SDS011;146;53.448;10.228;2023-01-10T11:00:13;12.17;;;6.57;;
317;SDS011;146;53.448;10.228;2023-01-10T11:02:42;11.00;;;6.00;;
317;SDS011;146;53.448;10.228;2023-01-10T11:05:14;12.50;;;6.23;;
317;SDS011;146;53.448;10.228;2023-01-10T11:07:43;7.77;;;5.07;;
317;SDS011;146;53.448;10.228;2023-01-10T11:10:11;7.03;;;5.03;;
317;SDS011;146;53.448;10.228;2023-01-10T11:12:56;9.87;;;5.50;;
317;SDS011;146;53.448;10.228;2023-01-10T11:15:36;10.53;;;5.53;;
317;SDS011;146;53.448;10.228;2023-01-10T11:18:05;9.50;;;5.40;;
317;SDS011;146;53.448;10.228;2023-01-10T11:20:35;10.10;;;5.00;;
317;SDS011;146;53.448;10.228;2023-01-10T11:23:03;12.03;;;5.77;;
317;SDS011;146;53.448;10.228;2023-01-10T11:25:30;12.83;;;5.70;;
317;SDS011;146;53.448;10.228;2023-01-10T11:27:58;11.57;;;6.83;;
317;SDS011;146;53.448;10.228;2023-01-10T11:30:27;11.63;;;7.30;;
317;SDS011;146;53.448;10.228;2023-01-10T11:32:56;10.93;;;6.17;;
317;SDS011;146;53.448;10.228;2023-01-10T11:42:29;12.63;;;5.93;;
317;SDS011;146;53.448;10.228;2023-01-10T11:45:47;8.13;;;5.70;;
317;SDS011;146;53.448;10.228;2023-01-10T11:48:58;7.73;;;5.43;;
317;SDS011;146;53.448;10.228;2023-01-10T11:52:22;8.37;;;5.37;;
317;SDS011;146;53.448;10.228;2023-01-10T11:55:35;11.40;;;5.40;;
317;SDS011;146;53.448;10.228;2023-01-10T11:58:37;9.73;;;4.90;;
317;SDS011;146;53.448;10.228;2023-01-10T12:11:23;9.80;;;5.30;;
317;SDS011;146;53.448;10.228;2023-01-10T12:14:22;10.13;;;5.23;;
317;SDS011;146;53.448;10.228;2023-01-10T12:17:58;12.10;;;6.63;;
317;SDS011;146;53.448;10.228;2023-01-10T12:21:13;8.13;;;6.40;;
317;SDS011;146;53.448;10.228;2023-01-10T12:24:13;8.37;;;4.60;;
317;SDS011;146;53.448;10.228;2023-01-10T12:27:36;14.57;;;7.47;;
317;SDS011;146;53.448;10.228;2023-01-10T12:33:27;8.07;;;5.73;;
317;SDS011;146;53.448;10.228;2023-01-10T12:36:16;11.30;;;6.10;;
317;SDS011;146;53.448;10.228;2023-01-10T12:39:13;10.50;;;6.97;;
317;SDS011;146;53.448;10.228;2023-01-10T12:42:07;11.87;;;6.70;;
317;SDS011;146;53.448;10.228;2023-01-10T12:45:18;7.80;;;6.37;;
317;SDS011;146;53.448;10.228;2023-01-10T12:48:39;11.10;;;6.00;;
317;SDS011;146;53.448;10.228;2023-01-10T12:51:44;8.73;;;6.27;;
317;SDS011;146;53.448;10.228;2023-01-10T12:54:13;9.43;;;6.10;;
317;SDS011;146;53.448;10.228;2023-01-10T12:56:46;7.23;;;6.57;;
317;SDS011;146;53.448;10.228;2023-01-10T12:59:14;7.50;;;6.10;;
317;SDS011;146;53.448;10.228;2023-01-10T13:01:45;11.90;;;8.90;;
317;SDS011;146;53.448;10.228;2023-01-10T13:04:48;14.83;;;6.77;;
317;SDS011;146;53.448;10.228;2023-01-10T13:07:19;8.60;;;6.63;;
317;SDS011;146;53.448;10.228;2023-01-10T13:09:48;9.30;;;6.40;;
317;SDS011;146;53.448;10.228;2023-01-10T13:12:16;12.63;;;7.00;;
317;SDS011;146;53.448;10.228;2023-01-10T13:14:48;15.80;;;7.60;;
317;SDS011;146;53.448;10.228;2023-01-10T13:17:25;10.07;;;6.60;;
317;SDS011;146;53.448;10.228;2023-01-10T13:20:23;13.20;;;9.37;;
317;SDS011;146;53.448;10.228;2023-01-10T13:23:23;16.70;;;8.03;;
317;SDS011;146;53.448;10.228;2023-01-10T13:28:50;9.03;;;7.87;;
317;SDS011;146;53.448;10.228;2023-01-10T13:31:21;9.53;;;6.80;;
317;SDS011;146;53.448;10.228;2023-01-10T13:33:50;8.43;;;6.73;;
317;SDS011;146;53.448;10.228;2023-01-10T13:36:20;14.83;;;7.83;;
317;SDS011;146;53.448;10.228;2023-01-10T13:38:51;10.20;;;6.40;;
317;SDS011;146;53.448;10.228;2023-01-10T13:41:21;9.90;;;7.27;;
317;SDS011;146;53.448;10.228;2023-01-10T13:44:07;13.37;;;6.60;;
317;SDS011;146;53.448;10.228;2023-01-10T13:46:37;7.57;;;6.80;;
317;SDS011;146;53.448;10.228;2023-01-10T13:49:20;8.63;;;7.07;;
317;SDS011;146;53.448;10.228;2023-01-10T13:54:54;9.80;;;7.30;;
317;SDS011;146;53.448;10.228;2023-01-10T14:00:40;14.60;;;8.53;;
317;SDS011;146;53.448;10.228;2023-01-10T14:03:39;9.03;;;6.23;;
317;SDS011;146;53.448;10.228;2023-01-10T14:09:05;7.17;;;6.40;;
317;SDS011;146;53.448;10.228;2023-01-10T14:12:02;11.13;;;6.77;;
317;SDS011;146;53.448;10.228;2023-01-10T14:14:34;8.50;;;6.80;;
317;SDS011;146;53.448;10.228;2023-01-10T14:17:11;11.00;;;6.30;;
317;SDS011;146;53.448;10.228;2023-01-10T14:19:40;8.93;;;6.37;;
317;SDS011;146;53.448;10.228;2023-01-10T14:22:20;14.07;;;8.07;;
317;SDS011;146;53.448;10.228;2023-01-10T14:24:51;11.70;;;5.77;;
317;SDS011;146;53.448;10.228;2023-01-10T14:27:19;8.93;;;6.23;;
317;SDS011;146;53.448;10.228;2023-01-10T14:29:49;12.13;;;6.40;;
317;SDS011;146;53.448;10.228;2023-01-10T14:32:23;7.43;;;5.00;;
317;SDS011;146;53.448;10.228;2023-01-10T14:34:56;8.60;;;6.20;;
317;SDS011;146;53.448;10.228;2023-01-10T14:37:27;10.23;;;5.27;;
317;SDS011;146;53.448;10.228;2023-01-10T14:39:59;9.90;;;5.50;;
317;SDS011;146;53.448;10.228;2023-01-10T14:42:26;7.30;;;4.90;;
317;SDS011;146;53.448;10.228;2023-01-10T14:44:56;6.40;;;5.43;;
317;SDS011;146;53.448;10.228;2023-01-10T14:47:28;7.70;;;5.77;;
317;SDS011;146;53.448;10.228;2023-01-10T14:49:57;11.23;;;6.20;;
317;SDS011;146;53.448;10.228;2023-01-10T14:52:25;13.90;;;5.70;;
317;SDS011;146;53.448;10.228;2023-01-10T14:54:53;8.40;;;5.50;;
317;SDS011;146;53.448;10.228;2023-01-10T14:57:27;6.83;;;5.97;;
317;SDS011;146;53.448;10.228;2023-01-10T15:00:01;12.07;;;6.20;;
317;SDS011;146;53.448;10.228;2023-01-10T15:02:31;8.20;;;5.50;;
317;SDS011;146;53.448;10.228;2023-01-10T15:04:58;10.47;;;6.70;;
317;SDS011;146;53.448;10.228;2023-01-10T15:07:33;6.60;;;5.43;;
317;SDS011;146;53.448;10.228;2023-01-10T15:10:08;11.20;;;4.90;;
317;SDS011;146;53.448;10.228;2023-01-10T15:12:45;13.00;;;6.33;;
317;SDS011;146;53.448;10.228;2023-01-10T15:15:14;11.57;;;6.30;;
317;SDS011;146;53.448;10.228;2023-01-10T15:17:43;11.10;;;7.10;;
317;SDS011;146;53.448;10.228;2023-01-10T15:20:12;7.73;;;5.90;;
317;SDS011;146;53.448;10.228;2023-01-10T15:22:41;10.60;;;6.93;;
317;SDS011;146;53.448;10.228;2023-01-10T15:25:23;10.20;;;5.77;;
317;SDS011;146;53.448;10.228;2023-01-10T15:27:52;14.57;;;7.80;;
317;SDS011;146;53.448;10.228;2023-01-10T15:30:22;13.60;;;7.07;;
317;SDS011;146;53.448;10.228;2023-01-10T15:32:51;7.90;;;6.13;;
317;SDS011;146;53.448;10.228;2023-01-10T15:35:20;10.57;;;6.60;;
317;SDS011;146;53.448;10.228;2023-01-10T15:37:51;13.30;;;7.00;;
317;SDS011;146;53.448;10.228;2023-01-10T15:40:22;9.60;;;7.10;;
317;SDS011;146;53.448;10.228;2023-01-10T15:43:08;15.03;;;7.87;;
317;SDS011;146;53.448;10.228;2023-01-10T15:45:38;13.07;;;7.40;;
317;SDS011;146;53.448;10.228;2023-01-10T15:50:52;8.40;;;7.30;;
317;SDS011;146;53.448;10.228;2023-01-10T15:53:20;11.60;;;7.50;;
317;SDS011;146;53.448;10.228;2023-01-10T15:56:21;9.57;;;7.60;;
317;SDS011;146;53.448;10.228;2023-01-10T15:58:52;10.30;;;7.57;;
317;SDS011;146;53.448;10.228;2023-01-10T16:01:20;11.50;;;7.40;;
317;SDS011;146;53.448;10.228;2023-01-10T16:03:47;12.50;;;8.43;;
317;SDS011;146;53.448;10.228;2023-01-10T16:06:18;8.70;;;7.80;;
317;SDS011;146;53.448;10.228;2023-01-10T16:08:48;8.87;;;6.73;;
317;SDS011;146;53.448;10.228;2023-01-10T16:11:25;8.60;;;6.93;;
317;SDS011;146;53.448;10.228;2023-01-10T16:14:14;9.80;;;7.33;;
317;SDS011;146;53.448;10.228;2023-01-10T16:16:41;12.07;;;8.27;;
317;SDS011;146;53.448;10.228;2023-01-10T16:19:08;10.60;;;7.50;;
317;SDS011;146;53.448;10.228;2023-01-10T16:21:37;9.90;;;8.07;;
317;SDS011;146;53.448;10.228;2023-01-10T16:24:06;11.77;;;7.93;;
317;SDS011;146;53.448;10.228;2023-01-10T16:26:43;11.33;;;9.00;;
317;SDS011;146;53.448;10.228;2023-01-10T16:29:11;13.77;;;8.93;;
317;SDS011;146;53.448;10.228;2023-01-10T16:31:38;11.93;;;9.27;;
317;SDS011;146;53.448;10.228;2023-01-10T16:34:05;9.77;;;8.77;;
317;SDS011;146;53.448;10.228;2023-01-10T16:36:32;9.10;;;8.00;;
317;SDS011;146;53.448;10.228;2023-01-10T16:39:00;12.23;;;9.60;;
317;SDS011;146;53.448;10.228;2023-01-10T16:41:31;13.90;;;8.80;;
317;SDS011;146;53.448;10.228;2023-01-10T16:44:17;14.23;;;8.47;;
317;SDS011;146;53.448;10.228;2023-01-10T16:46:44;12.43;;;9.83;;
317;SDS011;146;53.448;10.228;2023-01-10T16:49:11;11.40;;;8.70;;
317;SDS011;146;53.448;10.228;2023-01-10T16:51:39;18.70;;;9.40;;
317;SDS011;146;53.448;10.228;2023-01-10T16:54:08;14.17;;;8.67;;
317;SDS011;146;53.448;10.228;2023-01-10T16:56:39;13.33;;;7.97;;
317;SDS011;146;53.448;10.228;2023-01-10T16:59:06;14.80;;;9.07;;
317;SDS011;146;53.448;10.228;2023-01-10T17:01:35;11.30;;;8.40;;
317;SDS011;146;53.448;10.228;2023-01-10T17:04:05;12.27;;;8.43;;
317;SDS011;146;53.448;10.228;2023-01-10T17:06:32;18.10;;;9.10;;
317;SDS011;146;53.448;10.228;2023-01-10T17:08:59;11.70;;;8.23;;
317;SDS011;146;53.448;10.228;2023-01-10T17:11:27;13.00;;;9.13;;
317;SDS011;146;53.448;10.228;2023-01-10T17:13:57;18.23;;;9.00;;
317;SDS011;146;53.448;10.228;2023-01-10T17:16:24;15.50;;;10.47;;
317;SDS011;146;53.448;10.228;2023-01-10T17:18:52;14.10;;;7.90;;
317;SDS011;146;53.448;10.228;2023-01-10T17:21:20;11.33;;;7.80;;
317;SDS011;146;53.448;10.228;2023-01-10T17:23:48;15.50;;;8.67;;
317;SDS011;146;53.448;10.228;2023-01-10T17:26:16;13.97;;;8.00;;
317;SDS011;146;53.448;10.228;2023-01-10T17:28:44;9.00;;;7.87;;
317;SDS011;146;53.448;10.228;2023-01-10T17:31:13;13.90;;;8.03;;
317;SDS011;146;53.448;10.228;2023-01-10T17:33:41;17.20;;;8.13;;
317;SDS011;146;53.448;10.228;2023-01-10T17:36:10;12.50;;;7.27;;
317;SDS011;146;53.448;10.228;2023-01-10T17:38:37;10.90;;;6.67;;
317;SDS011;146;53.448;10.228;2023-01-10T17:41:04;13.70;;;8.17;;
317;SDS011;146;53.448;10.228;2023-01-10T17:43:31;15.50;;;8.80;;
317;SDS011;146;53.448;10.228;2023-01-10T17:45:58;9.77;;;7.23;;
317;SDS011;146;53.448;10.228;2023-01-10T17:48:29;11.37;;;7.13;;
317;SDS011;146;53.448;10.228;2023-01-10T17:50:59;8.53;;;7.57;;